Time;durP1;ratioP1;P1;durP2;ratioP2;P2;SDS_P1;SDS_P2;PMS_P1;PMS_P2;Temp;Humidity;BMP_temperature;BMP_pressure;BME280_temperature;BME280_humidity;BME280_pressure;Samples;Min_cycle;Max_cycle;Signal;HPM_P1;HPM_P2
2022/11/29 12:32:46;;;;;;;24.90;11.80;;;;;;;15.02;41.14;101259.82;106231;1276;487366;-90
2022/11/29 12:36:09;;;;;;;21.20;11.20;;;;;;;15.02;41.25;101254.48;105285;1283;81070;-93
2022/11/29 12:38:58;;;;;;;28.80;10.50;;;;;;;15.00;41.10;101249.36;103946;1301;73490;-89
2022/11/29 12:41:26;;;;;;;19.00;9.40;;;;;;;14.99;41.16;101249.17;104690;1285;69029;-90
2022/11/29 12:44:13;;;;;;;27.70;9.90;;;;;;;14.99;41.19;101248.88;104584;1283;69182;-90
2022/11/29 12:46:39;;;;;;;27.60;10.50;;;;;;;14.97;41.05;101247.56;104792;1291;73504;-89
2022/11/29 12:49:20;;;;;;;37.20;9.00;;;;;;;14.95;41.06;101242.46;104564;1288;69164;-89
2022/11/29 12:52:10;;;;;;;26.60;8.80;;;;;;;14.93;40.93;101240.05;104523;1287;72604;-89
2022/11/29 12:54:55;;;;;;;27.50;8.90;;;;;;;14.91;40.99;101241.65;104695;1292;69141;-89
2022/11/29 12:57:37;;;;;;;30.10;13.30;;;;;;;14.89;41.06;101243.55;104462;1291;69212;-89
2022/11/29 13:00:07;;;;;;;31.60;11.70;;;;;;;14.87;41.05;101244.30;104449;1291;74013;-89
2022/11/29 13:02:58;;;;;;;33.00;12.00;;;;;;;14.87;41.13;101245.52;104702;1292;81762;-89
2022/11/29 13:05:51;;;;;;;30.10;11.30;;;;;;;14.85;41.13;101244.85;104977;1291;71901;-89
2022/11/29 13:08:35;;;;;;;26.90;10.80;;;;;;;14.84;41.19;101243.78;104227;1288;69137;-89
2022/11/29 13:11:19;;;;;;;27.40;9.60;;;;;;;14.83;41.17;101251.23;104799;1284;69212;-94
2022/11/29 13:14:05;;;;;;;34.10;10.10;;;;;;;14.82;41.17;101253.57;104222;1288;74533;-89
2022/11/29 13:17:00;;;;;;;20.60;9.10;;;;;;;14.80;41.28;101251.14;104480;1290;82100;-89
2022/11/29 13:19:41;;;;;;;23.60;8.80;;;;;;;14.79;41.31;101262.66;104459;1285;71434;-89
2022/11/29 13:22:24;;;;;;;34.50;9.10;;;;;;;14.78;41.43;101258.96;104866;1288;69269;-89
2022/11/29 13:24:58;;;;;;;30.80;9.00;;;;;;;14.77;41.51;101260.83;105041;1291;69189;-89
2022/11/29 13:27:33;;;;;;;24.10;8.20;;;;;;;14.77;41.61;101259.56;105131;1288;74424;-90
2022/11/29 13:29:59;;;;;;;24.70;8.50;;;;;;;14.76;41.76;101259.73;105120;1286;82220;-89
2022/11/29 13:32:28;;;;;;;22.50;8.00;;;;;;;14.76;41.84;101254.63;104938;1287;69202;-90
2022/11/29 13:34:54;;;;;;;29.10;9.50;;;;;;;14.77;41.88;101257.86;104695;1294;69011;-91
2022/11/29 13:37:26;;;;;;;26.30;8.80;;;;;;;14.77;41.88;101261.52;104173;1295;69514;-90
2022/11/29 13:40:17;;;;;;;14.50;7.80;;;;;;;14.77;41.98;101259.94;104734;1288;73586;-90
2022/11/29 13:42:53;;;;;;;66.50;10.90;;;;;;;14.77;42.07;101265.83;104942;1287;82283;-90
2022/11/29 13:45:43;;;;;;;185.60;18.20;;;;;;;14.76;42.05;101264.42;104707;1288;72230;-90
2022/11/29 13:48:27;;;;;;;475.70;37.60;;;;;;;14.76;42.04;101266.02;104960;1287;69183;-90
2022/11/29 13:50:53;;;;;;;451.90;38.70;;;;;;;14.76;42.08;101272.55;104830;1288;69077;-89
2022/11/29 13:53:39;;;;;;;463.00;40.40;;;;;;;14.76;42.20;101273.42;104780;1291;69758;-90
2022/11/29 13:56:04;;;;;;;498.30;48.20;;;;;;;14.75;42.25;101271.05;104791;1290;83117;-90
2022/11/29 13:58:34;;;;;;;492.00;68.00;;;;;;;14.75;42.19;101272.73;104464;1295;69183;-89
2022/11/29 14:01:00;;;;;;;345.80;73.80;;;;;;;14.75;42.31;101277.75;104524;1294;69180;-90
2022/11/29 14:03:30;;;;;;;225.30;56.40;;;;;;;14.75;42.40;101279.10;104708;1280;69215;-90
2022/11/29 14:06:02;;;;;;;124.70;35.10;;;;;;;14.72;42.58;101277.92;104839;1287;73701;-90
2022/11/29 14:08:29;;;;;;;144.40;49.90;;;;;;;14.69;42.89;101281.27;104812;1286;82066;-90
2022/11/29 14:10:57;;;;;;;60.70;33.40;;;;;;;14.65;43.03;101282.83;104830;1284;72427;-90
2022/11/29 14:13:27;;;;;;;62.40;33.10;;;;;;;14.63;43.13;101289.27;104482;1296;69261;-90
2022/11/29 14:15:54;;;;;;;62.40;41.40;;;;;;;14.61;43.16;101286.23;104744;1291;69100;-89
2022/11/29 14:18:41;;;;;;;88.50;56.40;;;;;;;14.59;43.26;101283.39;104392;1292;69608;-89
2022/11/29 14:21:06;;;;;;;94.70;67.70;;;;;;;14.58;43.41;101285.02;104680;1292;82228;-89
2022/11/29 14:23:39;;;;;;;120.00;89.20;;;;;;;14.58;43.35;101281.92;104810;1290;69170;-89
2022/11/29 14:26:05;;;;;;;113.40;81.90;;;;;;;14.58;43.47;101285.09;104782;1284;69112;-88
2022/11/29 14:28:32;;;;;;;113.50;76.30;;;;;;;14.59;43.54;101284.60;104641;1281;69183;-90
2022/11/29 14:31:03;;;;;;;122.60;87.30;;;;;;;14.59;43.68;101286.42;104453;1289;323008;-91
2022/11/29 14:33:34;;;;;;;126.60;85.60;;;;;;;14.60;43.62;101288.78;104848;1293;82269;-88
2022/11/29 14:36:19;;;;;;;112.30;80.40;;;;;;;14.60;43.68;101292.19;105087;1292;72635;-88
2022/11/29 14:38:44;;;;;;;123.40;85.60;;;;;;;14.61;43.66;101292.75;105108;1285;69138;-88
2022/11/29 14:41:19;;;;;;;128.50;94.20;;;;;;;14.61;43.71;101290.52;104725;1291;69187;-89
2022/11/29 14:43:45;;;;;;;116.30;82.10;;;;;;;14.61;43.75;101295.91;105171;1289;72664;-89
2022/11/29 14:46:10;;;;;;;112.90;80.70;;;;;;;14.61;43.74;101298.70;104811;1294;69185;-88
2022/11/29 14:48:36;;;;;;;109.90;80.10;;;;;;;14.62;43.72;101297.24;105186;1291;69249;-88
2022/11/29 14:51:13;;;;;;;110.70;76.00;;;;;;;14.62;43.68;101297.39;104576;1285;69159;-88
2022/11/29 14:53:40;;;;;;;101.40;73.10;;;;;;;14.63;43.60;101301.05;105095;1291;69211;-89
2022/11/29 14:56:27;;;;;;;100.20;71.50;;;;;;;14.63;43.63;101302.87;104702;1291;69129;-89
2022/11/29 14:59:31;;;;;;;102.80;69.30;;;;;;;14.63;43.63;101301.84;104871;1286;81970;-89
2022/11/29 15:01:58;;;;;;;88.50;60.10;;;;;;;14.62;43.49;101301.21;105740;1286;73561;-89
2022/11/29 15:04:24;;;;;;;92.30;62.10;;;;;;;14.62;43.50;101300.91;105475;1287;68994;-89
2022/11/29 15:06:50;;;;;;;96.80;63.70;;;;;;;14.62;43.45;101303.69;105217;1291;69260;-89
2022/11/29 15:09:18;;;;;;;92.70;60.70;;;;;;;14.62;43.36;101302.80;104982;1292;68965;-89
2022/11/29 15:11:49;;;;;;;91.40;56.70;;;;;;;14.62;43.34;101309.27;105286;1288;69282;-89
2022/11/29 15:14:30;;;;;;;86.50;56.10;;;;;;;14.63;43.31;101314.17;105226;1286;72538;-89
2022/11/29 15:17:23;;;;;;;83.90;50.30;;;;;;;14.63;43.30;101312.25;105379;1289;69188;-89
2022/11/29 15:20:14;;;;;;;81.30;46.80;;;;;;;14.63;43.23;101311.79;104662;1291;69209;-89
2022/11/29 15:22:53;;;;;;;78.80;46.10;;;;;;;14.63;43.19;101312.56;104719;1294;73597;-89
2022/11/29 15:25:22;;;;;;;83.70;44.80;;;;;;;14.64;43.15;101313.73;104580;1278;81189;-88
2022/11/29 15:27:55;;;;;;;83.00;47.40;;;;;;;14.64;43.31;101313.59;104464;1291;72491;-88
2022/11/29 15:30:32;;;;;;;85.30;45.60;;;;;;;14.65;43.15;101318.22;104323;1294;69262;-88
2022/11/29 15:32:58;;;;;;;79.40;43.80;;;;;;;14.66;43.16;101323.23;104766;1294;69131;-88
2022/11/29 15:35:24;;;;;;;82.00;40.50;;;;;;;14.67;43.02;101321.61;104507;1292;69204;-88
2022/11/29 15:37:50;;;;;;;86.60;45.50;;;;;;;14.67;43.07;101330.27;104285;1291;69196;-88
2022/11/29 15:40:17;;;;;;;84.50;41.30;;;;;;;14.68;43.04;101330.73;104049;1292;69143;-88
2022/11/29 15:42:46;;;;;;;80.90;41.20;;;;;;;14.68;43.08;101325.88;104709;1292;69559;-88
2022/11/29 15:45:29;;;;;;;82.10;40.20;;;;;;;14.68;43.05;101331.84;104869;1295;69167;-88
2022/11/29 15:47:55;;;;;;;83.10;38.40;;;;;;;14.69;42.90;101336.43;104931;1288;73702;-88
2022/11/29 15:50:25;;;;;;;76.50;37.90;;;;;;;14.69;43.08;101331.11;104869;1292;69218;-89
2022/11/29 15:52:50;;;;;;;88.70;41.50;;;;;;;14.70;42.97;101333.16;104653;1292;73513;-89
2022/11/29 15:55:16;;;;;;;80.20;38.00;;;;;;;14.71;43.02;101333.30;104767;1287;69034;-92
2022/11/29 15:57:42;;;;;;;79.20;38.60;;;;;;;14.71;43.01;101334.88;104846;1285;69090;-88
2022/11/29 16:00:15;;;;;;;81.70;37.40;;;;;;;14.71;43.01;101335.26;104395;1290;69132;-88
2022/11/29 16:02:50;;;;;;;75.20;37.20;;;;;;;14.72;43.02;101331.91;104886;1288;83195;-88
2022/11/29 16:05:15;;;;;;;77.70;34.30;;;;;;;14.72;43.04;101333.56;104828;1295;72443;-88
2022/11/29 16:07:41;;;;;;;75.30;37.10;;;;;;;14.72;43.02;101340.00;104960;1282;69173;-88
2022/11/29 16:10:21;;;;;;;72.10;35.50;;;;;;;14.72;42.94;101342.23;104123;1292;69279;-88
2022/11/29 16:13:02;;;;;;;71.80;32.20;;;;;;;14.72;42.95;101347.09;104507;1293;72658;-88
2022/11/29 16:15:28;;;;;;;65.80;31.80;;;;;;;14.72;42.96;101346.86;104718;1288;81882;-88
2022/11/29 16:17:54;;;;;;;76.00;31.00;;;;;;;14.72;42.90;101353.01;104963;1286;69187;-88
2022/11/29 16:20:23;;;;;;;71.10;30.70;;;;;;;14.71;42.94;101357.38;104905;1287;69224;-88
2022/11/29 16:23:14;;;;;;;75.90;32.50;;;;;;;14.72;42.99;101356.35;104976;1288;69194;-89
2022/11/29 16:26:13;;;;;;;70.60;30.60;;;;;;;14.72;43.01;101351.09;104891;1287;73750;-88
2022/11/29 16:28:44;;;;;;;64.10;30.50;;;;;;;14.72;42.99;101347.89;105048;1286;81916;-87
2022/11/29 16:33:38;;;;;;;62.70;27.50;;;;;;;14.74;43.10;101352.79;107225;1276;67971;-89
2022/11/29 16:36:18;;;;;;;64.80;27.60;;;;;;;14.75;42.99;101352.18;106475;1294;69131;-88
2022/11/29 16:39:08;;;;;;;60.50;26.00;;;;;;;14.76;43.12;101355.50;105126;1292;73480;-88
2022/11/29 16:41:35;;;;;;;62.90;28.90;;;;;;;14.77;43.08;101362.42;104574;1292;81332;-88
2022/11/29 16:44:02;;;;;;;52.20;24.80;;;;;;;14.78;43.05;101363.17;104475;1296;73331;-89
2022/11/29 16:46:32;;;;;;;48.60;22.50;;;;;;;14.79;43.06;101367.59;104529;1285;69170;-88
2022/11/29 16:48:59;;;;;;;49.80;24.20;;;;;;;14.79;43.06;101370.13;104420;1292;69167;-88
2022/11/29 16:51:39;;;;;;;50.00;24.50;;;;;;;14.80;42.93;101374.18;104498;1292;73346;-87
2022/11/29 16:54:40;;;;;;;94.70;51.80;;;;;;;14.79;42.86;101380.49;104713;1292;82979;-87
2022/11/29 16:57:07;;;;;;;;;;;;;;;14.78;42.92;101374.55;104652;1296;72280;-88
2022/11/29 16:59:34;;;;;;;93.30;51.90;;;;;;;14.76;42.83;101379.80;104594;1295;69158;-88
2022/11/29 17:01:59;;;;;;;90.20;49.40;;;;;;;14.76;42.83;101375.73;104557;1291;69066;-88
2022/11/29 17:04:25;;;;;;;86.00;49.60;;;;;;;14.76;42.80;101379.22;104384;1293;69281;-88
2022/11/29 17:06:54;;;;;;;85.00;45.00;;;;;;;14.77;42.79;101377.21;104373;1292;69228;-88
2022/11/29 17:09:30;;;;;;;79.10;43.80;;;;;;;14.78;42.83;101381.25;104290;1294;69205;-88
2022/11/29 17:11:58;;;;;;;71.60;40.30;;;;;;;14.77;42.71;101386.61;104254;1297;69182;-87
2022/11/29 17:14:24;;;;;;;66.20;37.60;;;;;;;14.78;42.71;101389.46;104629;1294;69163;-88
2022/11/29 17:16:50;;;;;;;65.00;36.90;;;;;;;14.78;42.60;101391.83;104546;1292;69205;-88
2022/11/29 17:19:17;;;;;;;59.10;35.00;;;;;;;14.79;42.65;101395.38;104034;1297;69316;-88
2022/11/29 17:21:42;;;;;;;57.00;32.70;;;;;;;14.79;42.64;101398.17;104123;1295;69209;-88
2022/11/29 17:24:14;;;;;;;54.90;30.80;;;;;;;14.79;42.53;101400.21;103914;1292;69139;-88
2022/11/29 17:26:40;;;;;;;51.70;28.40;;;;;;;14.80;42.65;101399.42;104119;1291;69172;-88
2022/11/29 17:29:06;;;;;;;50.70;28.30;;;;;;;14.80;42.53;101401.10;104499;1294;69137;-88
2022/11/29 17:31:31;;;;;;;45.20;27.00;;;;;;;14.80;42.50;101407.45;104153;1299;69279;-88
2022/11/29 17:34:00;;;;;;;48.10;25.30;;;;;;;14.80;42.52;101403.15;104302;1293;69128;-92
2022/11/29 17:36:25;;;;;;;43.90;25.80;;;;;;;14.81;42.38;101407.42;104411;1296;70041;-88
2022/11/29 17:38:51;;;;;;;41.80;23.80;;;;;;;14.82;42.48;101406.11;104650;1294;69130;-88
2022/11/29 17:41:20;;;;;;;35.60;22.10;;;;;;;14.82;42.36;101402.30;104158;1292;69264;-88
2022/11/29 17:43:46;;;;;;;38.20;21.30;;;;;;;14.82;42.38;101396.80;104385;1294;82699;-88
2022/11/29 17:46:14;;;;;;;38.60;21.80;;;;;;;14.83;42.46;101398.67;104487;1292;69212;-88
2022/11/29 17:48:39;;;;;;;35.80;20.50;;;;;;;14.83;42.36;101403.77;104113;1290;69329;-88
2022/11/29 17:51:06;;;;;;;35.30;20.90;;;;;;;14.84;42.29;101404.30;104292;1290;69309;-88
2022/11/29 17:53:31;;;;;;;30.70;18.20;;;;;;;14.84;42.22;101411.05;104397;1287;69285;-88
2022/11/29 17:56:04;;;;;;;33.40;19.00;;;;;;;14.85;42.41;101405.41;104345;1289;69183;-88
2022/11/29 17:58:31;;;;;;;30.50;18.70;;;;;;;14.85;42.15;101400.53;104377;1290;71497;-88
2022/11/29 18:01:13;;;;;;;27.30;16.90;;;;;;;14.86;42.24;101405.85;104491;1292;69301;-92
2022/11/29 18:03:39;;;;;;;33.10;18.10;;;;;;;14.86;42.23;101403.52;104019;1295;69084;-88
2022/11/29 18:06:09;;;;;;;26.30;16.40;;;;;;;14.86;42.21;101402.57;104468;1293;69203;-88
2022/11/29 18:08:45;;;;;;;28.70;15.80;;;;;;;14.86;42.16;101398.89;104615;1293;82082;-88
2022/11/29 18:11:21;;;;;;;27.70;14.90;;;;;;;14.87;42.23;101401.18;104528;1294;72429;-88
2022/11/29 18:13:46;;;;;;;23.00;14.50;;;;;;;14.87;42.12;101396.89;104493;1288;69160;-88
2022/11/29 18:16:17;;;;;;;26.50;15.50;;;;;;;14.88;42.20;101402.27;104314;1293;69276;-88
2022/11/29 18:18:46;;;;;;;21.60;14.00;;;;;;;14.88;42.05;101407.29;104012;1293;74324;-88
2022/11/29 18:21:12;;;;;;;22.50;13.50;;;;;;;14.89;42.13;101410.06;104149;1290;82157;-88
2022/11/29 18:23:40;;;;;;;19.50;12.50;;;;;;;14.90;42.06;101405.65;104409;1295;69196;-88
2022/11/29 18:26:10;;;;;;;21.90;12.10;;;;;;;14.90;42.07;101403.73;104510;1287;68053;-88
2022/11/29 18:28:37;;;;;;;20.20;12.00;;;;;;;14.90;42.07;101406.02;104353;1292;69208;-88
2022/11/29 18:31:11;;;;;;;21.60;11.90;;;;;;;14.91;42.02;101407.13;104272;1289;73595;-88
2022/11/29 18:33:37;;;;;;;22.00;11.80;;;;;;;14.92;42.00;101404.96;104442;1289;83142;-88
2022/11/29 18:36:04;;;;;;;19.60;11.60;;;;;;;14.92;41.88;101409.40;104695;1290;69181;-89
2022/11/29 18:38:31;;;;;;;20.00;11.00;;;;;;;14.92;41.87;101410.85;104708;1287;69202;-88
2022/11/29 18:40:58;;;;;;;20.20;11.20;;;;;;;14.92;41.88;101409.80;104531;1293;69114;-88
2022/11/29 18:43:23;;;;;;;16.80;11.30;;;;;;;14.93;41.85;101409.44;104559;1292;68965;-89
2022/11/29 18:45:49;;;;;;;18.50;10.70;;;;;;;14.94;41.91;101408.39;104585;1292;69189;-92
2022/11/29 18:48:14;;;;;;;17.60;10.80;;;;;;;14.94;41.84;101409.98;104328;1293;69189;-88
2022/11/29 18:50:40;;;;;;;18.20;10.60;;;;;;;14.95;41.80;101415.67;104588;1289;69201;-88
2022/11/29 18:53:05;;;;;;;18.40;11.10;;;;;;;14.96;41.73;101416.30;104585;1295;69199;-89
2022/11/29 18:55:31;;;;;;;17.10;9.60;;;;;;;14.96;41.84;101417.33;104478;1287;70086;-88
2022/11/29 18:57:56;;;;;;;16.70;10.30;;;;;;;14.96;41.80;101424.24;104513;1293;69180;-89
2022/11/29 19:00:22;;;;;;;16.70;10.40;;;;;;;14.97;41.81;101425.58;104502;1295;69194;-89
2022/11/29 19:02:47;;;;;;;17.20;9.90;;;;;;;14.97;41.70;101426.61;104447;1292;69038;-88
2022/11/29 19:05:13;;;;;;;15.80;9.60;;;;;;;14.98;41.74;101423.00;104357;1294;69131;-88
2022/11/29 19:07:39;;;;;;;15.30;9.40;;;;;;;14.98;41.63;101424.02;104479;1288;69169;-88
2022/11/29 19:10:05;;;;;;;12.50;8.50;;;;;;;14.98;41.71;101427.93;104266;1297;69305;-88
2022/11/29 19:12:30;;;;;;;14.50;9.00;;;;;;;14.99;41.69;101426.23;104007;1299;69207;-88
2022/11/29 19:14:56;;;;;;;14.20;9.00;;;;;;;14.99;41.65;101424.31;104246;1291;69253;-88
2022/11/29 19:17:21;;;;;;;13.90;8.70;;;;;;;14.99;41.64;101426.45;104289;1293;69282;-88
2022/11/29 19:19:47;;;;;;;12.50;8.90;;;;;;;15.00;41.55;101431.70;104608;1296;69558;-88
2022/11/29 19:22:12;;;;;;;14.90;8.60;;;;;;;15.00;41.56;101435.91;104574;1288;69227;-88
2022/11/29 19:24:38;;;;;;;14.40;8.60;;;;;;;15.00;41.56;101433.67;104304;1288;69194;-92
2022/11/29 19:27:04;;;;;;;11.90;8.10;;;;;;;15.01;41.59;101432.80;104111;1288;69206;-88
2022/11/29 19:29:29;;;;;;;13.20;8.10;;;;;;;15.01;41.55;101438.44;104486;1289;69186;-88
2022/11/29 19:31:55;;;;;;;12.00;7.40;;;;;;;15.02;41.43;101439.77;104136;1297;69195;-89
2022/11/29 19:34:20;;;;;;;11.60;7.80;;;;;;;15.02;41.48;101444.05;104295;1298;67999;-88
2022/11/29 19:36:46;;;;;;;12.50;7.70;;;;;;;15.02;41.42;101439.53;104442;1284;69298;-88
2022/11/29 19:39:13;;;;;;;11.30;7.10;;;;;;;15.02;41.48;101444.52;104158;1291;69581;-88
2022/11/29 19:41:38;;;;;;;11.40;7.30;;;;;;;15.02;41.46;101443.09;104345;1290;69164;-88
2022/11/29 19:44:05;;;;;;;13.30;7.50;;;;;;;15.03;41.44;101444.27;104346;1290;69242;-89
2022/11/29 19:46:36;;;;;;;11.80;7.90;;;;;;;15.03;41.50;101449.20;104275;1296;82750;-88
2022/11/29 19:49:02;;;;;;;13.90;7.90;;;;;;;15.03;41.44;101446.18;104351;1294;72215;-88
2022/11/29 19:51:28;;;;;;;10.60;7.10;;;;;;;15.03;41.39;101445.07;104223;1293;69154;-89
2022/11/29 19:53:55;;;;;;;10.30;7.20;;;;;;;15.04;41.41;101447.11;104131;1288;69355;-88
2022/11/29 19:56:20;;;;;;;10.40;6.80;;;;;;;15.05;41.40;101446.94;104173;1296;69112;-88
2022/11/29 19:58:46;;;;;;;9.60;6.60;;;;;;;15.04;41.33;101441.30;104151;1294;69245;-88
2022/11/29 20:01:16;;;;;;;10.20;6.80;;;;;;;15.04;41.32;101440.80;104283;1292;69663;-88
2022/11/29 20:03:43;;;;;;;9.70;6.50;;;;;;;15.05;41.29;101440.39;104416;1291;69167;-88
2022/11/29 20:06:09;;;;;;;11.20;6.90;;;;;;;15.05;41.28;101437.46;104090;1297;69942;-88
2022/11/29 20:08:35;;;;;;;9.50;6.30;;;;;;;15.05;41.25;101439.45;104260;1293;69137;-88
2022/11/29 20:11:08;;;;;;;9.50;6.70;;;;;;;15.05;41.22;101438.79;104515;1295;69190;-88
2022/11/29 20:13:35;;;;;;;9.10;6.00;;;;;;;15.06;41.19;101440.69;104264;1294;72362;-89
2022/11/29 20:16:02;;;;;;;10.30;6.20;;;;;;;15.05;41.25;101436.71;104312;1294;69130;-89
2022/11/29 20:18:32;;;;;;;10.00;6.80;;;;;;;15.06;41.19;101436.94;104267;1289;69109;-92
2022/11/29 20:21:21;;;;;;;9.40;6.20;;;;;;;15.06;41.15;101435.58;104024;1289;72645;-88
2022/11/29 20:23:47;;;;;;;10.00;6.50;;;;;;;15.06;41.12;101441.41;104389;1288;82061;-88
2022/11/29 20:26:14;;;;;;;9.60;6.30;;;;;;;15.06;41.21;101445.77;104146;1295;69192;-88
2022/11/29 20:28:40;;;;;;;8.90;6.30;;;;;;;15.06;41.12;101442.11;104208;1292;69223;-88
2022/11/29 20:31:14;;;;;;;8.90;5.90;;;;;;;15.07;41.19;101448.93;104020;1298;69196;-88
2022/11/29 20:33:40;;;;;;;9.60;6.00;;;;;;;15.07;41.10;101443.12;104679;1285;73784;-89
2022/11/29 20:36:28;;;;;;;9.50;5.90;;;;;;;15.07;41.13;101441.29;104185;1289;69519;-88
2022/11/29 20:39:05;;;;;;;8.10;5.70;;;;;;;15.07;41.10;101441.29;104630;1288;72533;-88
2022/11/29 20:41:54;;;;;;;8.30;5.60;;;;;;;15.07;40.98;101440.09;104753;1278;69043;-89
2022/11/29 20:44:21;;;;;;;9.10;5.70;;;;;;;15.07;41.14;101444.45;104381;1292;69262;-88
2022/11/29 20:46:47;;;;;;;8.10;5.90;;;;;;;15.07;41.02;101444.70;104364;1292;73644;-89
2022/11/29 20:49:14;;;;;;;9.50;5.60;;;;;;;15.08;41.07;101449.69;104574;1292;69192;-88
2022/11/29 20:51:47;;;;;;;7.40;5.20;;;;;;;15.08;41.08;101451.05;104427;1288;69183;-89
2022/11/29 20:54:13;;;;;;;6.70;5.20;;;;;;;15.08;40.99;101444.99;104231;1287;69128;-93
2022/11/29 20:56:38;;;;;;;7.90;5.50;;;;;;;15.08;40.97;101446.10;104276;1290;69134;-89
2022/11/29 20:59:04;;;;;;;9.30;5.70;;;;;;;15.08;40.98;101450.96;104193;1299;69237;-89
2022/11/29 21:01:29;;;;;;;8.10;5.70;;;;;;;15.09;40.86;101452.77;104546;1292;69160;-89
2022/11/29 21:03:54;;;;;;;7.90;5.60;;;;;;;15.08;40.90;101454.47;104300;1286;69234;-88
2022/11/29 21:06:20;;;;;;;8.80;5.40;;;;;;;15.08;40.99;101454.06;104265;1293;69122;-94
2022/11/29 21:08:45;;;;;;;7.70;5.00;;;;;;;15.08;40.89;101461.33;104038;1289;69271;-88
2022/11/29 21:11:11;;;;;;;7.50;4.90;;;;;;;15.09;40.87;101463.61;104233;1297;69622;-88
2022/11/29 21:13:37;;;;;;;7.10;5.30;;;;;;;15.09;40.79;101467.11;104442;1296;69146;-88
2022/11/29 21:16:03;;;;;;;7.40;5.20;;;;;;;15.09;40.80;101473.16;104334;1292;69068;-89
2022/11/29 21:18:29;;;;;;;8.00;5.40;;;;;;;15.09;40.79;101471.58;104428;1289;69212;-89
2022/11/29 21:21:19;;;;;;;7.40;5.10;;;;;;;15.08;40.90;101469.04;104165;1294;69505;-89
2022/11/29 21:23:51;;;;;;;7.70;5.40;;;;;;;15.09;40.80;101469.73;104552;1289;72423;-89
2022/11/29 21:26:40;;;;;;;7.60;5.10;;;;;;;15.10;40.84;101468.36;104750;1294;69107;-89
2022/11/29 21:29:09;;;;;;;7.40;5.20;;;;;;;15.09;40.85;101475.08;104738;1286;69185;-89
2022/11/29 21:31:34;;;;;;;9.40;5.00;;;;;;;15.08;40.80;101464.58;104732;1278;74521;-89
2022/11/29 21:34:00;;;;;;;5.90;4.60;;;;;;;15.09;40.76;101464.88;104255;1289;70550;-88
2022/11/29 21:36:26;;;;;;;7.60;5.00;;;;;;;15.09;40.71;101465.36;104280;1288;69141;-89
2022/11/29 21:38:52;;;;;;;6.90;4.70;;;;;;;15.09;40.67;101466.93;104113;1292;69071;-89
2022/11/29 21:41:17;;;;;;;8.40;5.10;;;;;;;15.09;40.72;101460.83;104072;1293;69205;-88
2022/11/29 21:43:45;;;;;;;6.60;4.90;;;;;;;15.09;40.80;101459.62;104352;1292;69150;-89
2022/11/29 21:46:11;;;;;;;6.50;4.60;;;;;;;15.08;40.68;101460.11;103949;1292;69272;-88
2022/11/29 21:48:37;;;;;;;6.70;4.80;;;;;;;15.09;40.68;101462.09;104267;1293;69241;-89
2022/11/29 21:51:05;;;;;;;6.90;4.50;;;;;;;15.09;40.75;101459.93;104342;1284;69148;-89
2022/11/29 21:53:32;;;;;;;6.50;4.60;;;;;;;15.09;40.66;101459.06;104569;1281;73711;-89
2022/11/29 21:55:58;;;;;;;6.00;4.70;;;;;;;15.09;40.60;101457.55;104411;1293;69198;-89
2022/11/29 21:58:24;;;;;;;5.50;4.20;;;;;;;15.09;40.67;101455.31;106129;1275;68286;-89
2022/11/29 22:00:50;;;;;;;8.50;5.20;;;;;;;15.09;40.63;101456.02;107100;1285;66524;-90
2022/11/29 22:03:16;;;;;;;6.80;4.70;;;;;;;15.09;40.67;101456.49;107057;1286;66499;-89
2022/11/29 22:05:41;;;;;;;7.00;4.60;;;;;;;15.11;40.66;101457.42;105285;1280;68466;-88
2022/11/29 22:08:07;;;;;;;5.40;4.50;;;;;;;15.12;40.67;101454.11;105434;1292;69135;-88
2022/11/29 22:10:32;;;;;;;5.80;4.40;;;;;;;15.13;40.64;101447.48;104462;1294;69233;-88
2022/11/29 22:12:58;;;;;;;5.70;4.10;;;;;;;15.14;40.52;101448.16;104785;1289;69247;-89
2022/11/29 22:15:23;;;;;;;6.70;4.70;;;;;;;15.14;40.63;101446.25;104473;1292;69650;-89
2022/11/29 22:17:49;;;;;;;6.30;4.60;;;;;;;15.15;40.60;101446.07;104464;1289;69201;-88
2022/11/29 22:20:14;;;;;;;5.90;4.40;;;;;;;15.15;40.53;101445.42;104202;1292;69171;-89
2022/11/29 22:22:40;;;;;;;5.90;4.50;;;;;;;15.14;40.56;101443.29;104205;1292;69247;-89
2022/11/29 22:25:06;;;;;;;6.80;4.30;;;;;;;15.15;40.54;101443.52;104319;1290;69207;-89
2022/11/29 22:27:31;;;;;;;6.30;4.80;;;;;;;15.15;40.41;101444.61;105953;1288;67174;-90
2022/11/29 22:29:57;;;;;;;6.30;4.30;;;;;;;15.15;40.46;101441.83;106869;1285;66741;-89
2022/11/29 22:32:22;;;;;;;5.60;4.20;;;;;;;15.15;40.46;101440.46;106397;1289;67787;-89
2022/11/29 22:34:48;;;;;;;5.90;4.20;;;;;;;15.16;40.54;101434.00;104439;1288;69283;-89
2022/11/29 22:37:13;;;;;;;6.20;4.60;;;;;;;15.16;40.47;101434.86;104379;1290;69179;-90
2022/11/29 22:39:39;;;;;;;5.60;4.60;;;;;;;15.16;40.40;101437.81;104527;1291;69190;-89
2022/11/29 22:42:04;;;;;;;5.80;4.20;;;;;;;15.17;40.39;101435.40;104711;1289;70027;-90
2022/11/29 22:44:30;;;;;;;5.60;4.20;;;;;;;15.17;40.36;101444.95;104381;1292;73489;-89
2022/11/29 22:46:55;;;;;;;6.40;4.70;;;;;;;15.17;40.28;101439.92;104344;1294;69327;-89
2022/11/29 22:49:21;;;;;;;7.70;4.70;;;;;;;15.17;40.32;101436.66;104310;1291;69269;-89
2022/11/29 22:51:46;;;;;;;7.60;4.40;;;;;;;15.16;40.24;101433.10;104426;1296;69242;-89
2022/11/29 22:54:16;;;;;;;5.00;4.10;;;;;;;15.16;40.30;101438.74;104582;1290;69195;-89
2022/11/29 22:56:42;;;;;;;7.30;4.30;;;;;;;15.16;40.28;101440.05;104126;1293;81967;-89
2022/11/29 22:59:08;;;;;;;7.10;4.70;;;;;;;15.16;40.25;101441.40;104340;1288;69276;-89
2022/11/29 23:01:34;;;;;;;6.60;4.30;;;;;;;15.16;40.11;101441.71;104378;1292;69333;-89
2022/11/29 23:04:02;;;;;;;7.20;4.50;;;;;;;15.15;40.21;101442.61;104367;1292;69258;-89
2022/11/29 23:06:39;;;;;;;6.70;4.70;;;;;;;15.16;40.22;101443.56;104569;1292;74332;-89
2022/11/29 23:09:10;;;;;;;5.40;4.30;;;;;;;15.15;40.17;101441.67;104709;1292;83031;-90
2022/11/29 23:11:36;;;;;;;6.20;4.10;;;;;;;15.15;40.15;101441.45;104426;1295;73348;-89
2022/11/29 23:14:02;;;;;;;5.90;3.90;;;;;;;15.15;40.10;101442.48;104400;1290;69178;-89
2022/11/29 23:16:28;;;;;;;5.40;4.40;;;;;;;15.15;40.17;101441.76;104415;1290;69295;-90
2022/11/29 23:18:54;;;;;;;6.30;4.50;;;;;;;15.15;40.10;101440.08;104485;1290;69281;-90
2022/11/29 23:21:27;;;;;;;4.50;3.80;;;;;;;15.15;40.10;101440.24;104534;1295;68864;-89
2022/11/29 23:23:52;;;;;;;5.80;4.40;;;;;;;15.15;40.15;101441.92;104426;1288;72310;-90
2022/11/29 23:26:19;;;;;;;5.30;4.10;;;;;;;15.15;40.13;101436.98;104200;1292;69211;-89
2022/11/29 23:28:44;;;;;;;4.90;3.80;;;;;;;15.15;40.19;101438.41;105793;1287;69052;-88
2022/11/29 23:31:10;;;;;;;4.90;4.20;;;;;;;15.14;40.17;101437.23;106287;1285;66720;-89
2022/11/29 23:33:35;;;;;;;5.80;4.10;;;;;;;15.14;40.15;101434.20;105217;1290;66897;-89
2022/11/29 23:36:03;;;;;;;6.20;4.30;;;;;;;15.16;40.08;101431.45;104330;1288;69141;-89
2022/11/29 23:38:29;;;;;;;5.80;4.10;;;;;;;15.16;40.12;101431.91;104171;1291;69175;-89
2022/11/29 23:40:54;;;;;;;6.20;4.70;;;;;;;15.16;40.08;101434.38;104246;1292;69286;-89
2022/11/29 23:43:20;;;;;;;6.10;4.40;;;;;;;15.16;40.09;101432.23;104292;1274;69241;-87
2022/11/29 23:45:46;;;;;;;6.30;4.20;;;;;;;15.16;40.00;101430.96;104211;1292;69139;-87
2022/11/29 23:48:11;;;;;;;6.10;4.40;;;;;;;15.16;40.07;101437.01;104566;1284;69283;-89
2022/11/29 23:50:37;;;;;;;5.90;4.50;;;;;;;15.16;39.96;101441.80;104353;1292;69288;-93
2022/11/29 23:53:02;;;;;;;5.90;4.50;;;;;;;15.16;39.98;101444.13;104401;1290;69155;-88
2022/11/29 23:55:28;;;;;;;8.70;4.40;;;;;;;15.16;40.01;101437.48;104190;1290;69247;-88